sensor_id;sensor_type;location;lat;lon;timestamp;P1;durP1;ratioP1;P2;durP2;ratioP2
9838;SDS011;4958;48.150;11.506;2023-05-29T00:02:19;9.63;;;8.63;;
9838;SDS011;4958;48.150;11.506;2023-05-29T00:04:45;9.80;;;8.80;;
9838;SDS011;4958;48.150;11.506;2023-05-29T00:07:12;13.45;;;8.30;;
9838;SDS011;4958;48.150;11.506;2023-05-29T00:09:38;10.55;;;8.23;;
9838;SDS011;4958;48.150;11.506;2023-05-29T00:12:06;10.43;;;8.68;;
9838;SDS011;4958;48.150;11.506;2023-05-29T00:14:33;11.30;;;8.00;;
9838;SDS011;4958;48.150;11.506;2023-05-29T00:16:59;9.80;;;8.02;;
9838;SDS011;4958;48.150;11.506;2023-05-29T00:19:27;11.52;;;8.43;;
9838;SDS011;4958;48.150;11.506;2023-05-29T00:21:54;9.52;;;8.30;;
9838;SDS011;4958;48.150;11.506;2023-05-29T00:24:20;10.00;;;8.73;;
9838;SDS011;4958;48.150;11.506;2023-05-29T00:26:47;11.25;;;8.55;;
9838;SDS011;4958;48.150;11.506;2023-05-29T00:29:14;10.43;;;8.38;;
9838;SDS011;4958;48.150;11.506;2023-05-29T00:31:41;10.70;;;8.27;;
9838;SDS011;4958;48.150;11.506;2023-05-29T00:34:08;9.35;;;8.35;;
9838;SDS011;4958;48.150;11.506;2023-05-29T00:36:34;9.98;;;7.88;;
9838;SDS011;4958;48.150;11.506;2023-05-29T00:39:01;11.55;;;8.38;;
9838;SDS011;4958;48.150;11.506;2023-05-29T00:41:28;9.38;;;8.43;;
9838;SDS011;4958;48.150;11.506;2023-05-29T00:43:55;11.30;;;8.05;;
9838;SDS011;4958;48.150;11.506;2023-05-29T00:46:22;9.93;;;8.63;;
9838;SDS011;4958;48.150;11.506;2023-05-29T00:48:49;9.63;;;8.00;;
9838;SDS011;4958;48.150;11.506;2023-05-29T00:51:16;10.68;;;8.48;;
9838;SDS011;4958;48.150;11.506;2023-05-29T00:53:42;10.80;;;8.55;;
9838;SDS011;4958;48.150;11.506;2023-05-29T00:56:10;10.23;;;8.05;;
9838;SDS011;4958;48.150;11.506;2023-05-29T00:58:38;11.07;;;7.72;;
9838;SDS011;4958;48.150;11.506;2023-05-29T01:01:04;10.85;;;9.13;;
9838;SDS011;4958;48.150;11.506;2023-05-29T01:03:32;9.32;;;8.40;;
9838;SDS011;4958;48.150;11.506;2023-05-29T01:06:00;9.30;;;8.30;;
9838;SDS011;4958;48.150;11.506;2023-05-29T01:08:28;9.68;;;8.00;;
9838;SDS011;4958;48.150;11.506;2023-05-29T01:10:56;11.30;;;7.95;;
9838;SDS011;4958;48.150;11.506;2023-05-29T01:13:30;8.95;;;7.78;;
9838;SDS011;4958;48.150;11.506;2023-05-29T01:16:01;9.25;;;7.65;;
9838;SDS011;4958;48.150;11.506;2023-05-29T01:18:39;9.05;;;7.32;;
9838;SDS011;4958;48.150;11.506;2023-05-29T01:21:12;10.23;;;8.13;;
9838;SDS011;4958;48.150;11.506;2023-05-29T01:23:51;7.93;;;7.13;;
9838;SDS011;4958;48.150;11.506;2023-05-29T01:29:17;8.73;;;7.60;;
9838;SDS011;4958;48.150;11.506;2023-05-29T01:31:45;9.85;;;7.85;;
9838;SDS011;4958;48.150;11.506;2023-05-29T01:34:13;8.68;;;7.78;;
9838;SDS011;4958;48.150;11.506;2023-05-29T01:36:39;9.00;;;8.10;;
9838;SDS011;4958;48.150;11.506;2023-05-29T01:39:06;9.77;;;7.80;;
9838;SDS011;4958;48.150;11.506;2023-05-29T01:41:34;9.80;;;7.68;;
9838;SDS011;4958;48.150;11.506;2023-05-29T01:44:03;10.45;;;7.88;;
9838;SDS011;4958;48.150;11.506;2023-05-29T01:46:33;9.18;;;7.88;;
9838;SDS011;4958;48.150;11.506;2023-05-29T01:49:01;8.23;;;7.35;;
9838;SDS011;4958;48.150;11.506;2023-05-29T01:51:28;9.02;;;7.45;;
9838;SDS011;4958;48.150;11.506;2023-05-29T01:53:56;9.15;;;7.57;;
9838;SDS011;4958;48.150;11.506;2023-05-29T01:56:23;10.15;;;7.72;;
9838;SDS011;4958;48.150;11.506;2023-05-29T01:58:51;9.18;;;7.40;;
9838;SDS011;4958;48.150;11.506;2023-05-29T02:01:20;9.85;;;7.53;;
9838;SDS011;4958;48.150;11.506;2023-05-29T02:03:47;9.10;;;7.55;;
9838;SDS011;4958;48.150;11.506;2023-05-29T02:06:13;10.23;;;7.53;;
9838;SDS011;4958;48.150;11.506;2023-05-29T02:08:40;9.32;;;7.47;;
9838;SDS011;4958;48.150;11.506;2023-05-29T02:11:06;8.35;;;7.25;;
9838;SDS011;4958;48.150;11.506;2023-05-29T02:13:33;8.85;;;7.57;;
9838;SDS011;4958;48.150;11.506;2023-05-29T02:15:59;8.05;;;7.18;;
9838;SDS011;4958;48.150;11.506;2023-05-29T02:18:27;9.38;;;7.88;;
9838;SDS011;4958;48.150;11.506;2023-05-29T02:20:54;9.23;;;7.47;;
9838;SDS011;4958;48.150;11.506;2023-05-29T02:23:20;8.85;;;7.03;;
9838;SDS011;4958;48.150;11.506;2023-05-29T02:25:47;8.43;;;6.95;;
9838;SDS011;4958;48.150;11.506;2023-05-29T02:28:13;8.70;;;6.90;;
9838;SDS011;4958;48.150;11.506;2023-05-29T02:30:40;7.65;;;6.63;;
9838;SDS011;4958;48.150;11.506;2023-05-29T02:33:06;7.90;;;7.10;;
9838;SDS011;4958;48.150;11.506;2023-05-29T02:35:35;7.20;;;6.50;;
9838;SDS011;4958;48.150;11.506;2023-05-29T02:38:01;7.80;;;6.88;;
9838;SDS011;4958;48.150;11.506;2023-05-29T02:40:27;7.22;;;6.35;;
9838;SDS011;4958;48.150;11.506;2023-05-29T02:42:54;8.45;;;7.07;;
9838;SDS011;4958;48.150;11.506;2023-05-29T02:45:20;8.20;;;6.90;;
9838;SDS011;4958;48.150;11.506;2023-05-29T02:47:47;9.50;;;7.22;;
9838;SDS011;4958;48.150;11.506;2023-05-29T02:50:13;10.07;;;6.90;;
9838;SDS011;4958;48.150;11.506;2023-05-29T02:52:41;8.18;;;7.03;;
9838;SDS011;4958;48.150;11.506;2023-05-29T02:55:08;9.75;;;8.32;;
9838;SDS011;4958;48.150;11.506;2023-05-29T02:57:35;9.27;;;8.23;;
9838;SDS011;4958;48.150;11.506;2023-05-29T03:00:01;10.70;;;8.43;;
9838;SDS011;4958;48.150;11.506;2023-05-29T03:02:31;9.10;;;8.02;;
9838;SDS011;4958;48.150;11.506;2023-05-29T03:04:57;10.10;;;7.50;;
9838;SDS011;4958;48.150;11.506;2023-05-29T03:07:25;7.50;;;6.70;;
9838;SDS011;4958;48.150;11.506;2023-05-29T03:09:53;8.05;;;7.25;;
9838;SDS011;4958;48.150;11.506;2023-05-29T03:12:20;8.00;;;7.07;;
9838;SDS011;4958;48.150;11.506;2023-05-29T03:14:46;10.30;;;8.05;;
9838;SDS011;4958;48.150;11.506;2023-05-29T03:17:13;8.73;;;7.20;;
9838;SDS011;4958;48.150;11.506;2023-05-29T03:19:39;9.02;;;6.68;;
9838;SDS011;4958;48.150;11.506;2023-05-29T03:22:06;8.63;;;6.95;;
9838;SDS011;4958;48.150;11.506;2023-05-29T03:24:32;7.30;;;6.30;;
9838;SDS011;4958;48.150;11.506;2023-05-29T03:27:01;7.65;;;6.72;;
9838;SDS011;4958;48.150;11.506;2023-05-29T03:29:28;9.00;;;6.90;;
9838;SDS011;4958;48.150;11.506;2023-05-29T03:31:55;7.90;;;6.65;;
9838;SDS011;4958;48.150;11.506;2023-05-29T03:34:21;7.57;;;6.63;;
9838;SDS011;4958;48.150;11.506;2023-05-29T03:36:48;7.47;;;6.75;;
9838;SDS011;4958;48.150;11.506;2023-05-29T03:39:14;8.20;;;6.97;;
9838;SDS011;4958;48.150;11.506;2023-05-29T03:41:41;8.15;;;7.07;;
9838;SDS011;4958;48.150;11.506;2023-05-29T03:44:09;9.57;;;6.95;;
9838;SDS011;4958;48.150;11.506;2023-05-29T03:46:35;8.90;;;7.15;;
9838;SDS011;4958;48.150;11.506;2023-05-29T03:49:01;8.68;;;7.40;;
9838;SDS011;4958;48.150;11.506;2023-05-29T03:51:28;7.93;;;7.13;;
9838;SDS011;4958;48.150;11.506;2023-05-29T03:53:55;9.80;;;7.05;;
9838;SDS011;4958;48.150;11.506;2023-05-29T03:56:22;7.40;;;6.70;;
9838;SDS011;4958;48.150;11.506;2023-05-29T03:58:48;9.18;;;7.32;;
9838;SDS011;4958;48.150;11.506;2023-05-29T04:01:17;8.52;;;7.05;;
9838;SDS011;4958;48.150;11.506;2023-05-29T04:03:43;8.32;;;7.20;;
9838;SDS011;4958;48.150;11.506;2023-05-29T04:06:10;8.32;;;7.15;;
9838;SDS011;4958;48.150;11.506;2023-05-29T04:08:36;9.27;;;7.40;;
9838;SDS011;4958;48.150;11.506;2023-05-29T04:11:03;9.18;;;7.55;;
9838;SDS011;4958;48.150;11.506;2023-05-29T04:13:30;8.90;;;7.22;;
9838;SDS011;4958;48.150;11.506;2023-05-29T04:15:56;8.55;;;7.57;;
9838;SDS011;4958;48.150;11.506;2023-05-29T04:18:24;9.77;;;7.13;;
9838;SDS011;4958;48.150;11.506;2023-05-29T04:20:51;9.77;;;7.65;;
9838;SDS011;4958;48.150;11.506;2023-05-29T04:23:18;9.93;;;7.93;;
9838;SDS011;4958;48.150;11.506;2023-05-29T04:25:45;7.38;;;6.57;;
9838;SDS011;4958;48.150;11.506;2023-05-29T04:28:12;8.77;;;6.95;;
9838;SDS011;4958;48.150;11.506;2023-05-29T04:30:38;9.63;;;7.35;;
9838;SDS011;4958;48.150;11.506;2023-05-29T04:33:06;8.45;;;7.25;;
9838;SDS011;4958;48.150;11.506;2023-05-29T04:35:35;19.90;;;17.70;;
9838;SDS011;4958;48.150;11.506;2023-05-29T04:38:02;14.73;;;11.07;;
9838;SDS011;4958;48.150;11.506;2023-05-29T04:40:29;9.50;;;8.50;;
9838;SDS011;4958;48.150;11.506;2023-05-29T04:42:56;9.05;;;8.05;;
9838;SDS011;4958;48.150;11.506;2023-05-29T04:45:25;9.52;;;7.38;;
9838;SDS011;4958;48.150;11.506;2023-05-29T04:47:53;7.45;;;6.75;;
9838;SDS011;4958;48.150;11.506;2023-05-29T04:50:21;12.02;;;7.53;;
9838;SDS011;4958;48.150;11.506;2023-05-29T04:52:50;8.35;;;6.85;;
9838;SDS011;4958;48.150;11.506;2023-05-29T04:55:16;10.35;;;6.82;;
9838;SDS011;4958;48.150;11.506;2023-05-29T04:57:43;8.25;;;6.63;;
9838;SDS011;4958;48.150;11.506;2023-05-29T05:00:09;8.13;;;6.68;;
9838;SDS011;4958;48.150;11.506;2023-05-29T05:02:39;10.80;;;7.00;;
9838;SDS011;4958;48.150;11.506;2023-05-29T05:05:06;8.82;;;6.90;;
9838;SDS011;4958;48.150;11.506;2023-05-29T05:07:33;10.00;;;7.13;;
9838;SDS011;4958;48.150;11.506;2023-05-29T05:10:01;8.48;;;7.35;;
9838;SDS011;4958;48.150;11.506;2023-05-29T05:12:28;16.52;;;13.68;;
9838;SDS011;4958;48.150;11.506;2023-05-29T05:14:54;9.38;;;7.65;;
9838;SDS011;4958;48.150;11.506;2023-05-29T05:17:21;10.18;;;7.20;;
9838;SDS011;4958;48.150;11.506;2023-05-29T05:19:47;9.73;;;6.93;;
9838;SDS011;4958;48.150;11.506;2023-05-29T05:22:15;8.05;;;6.70;;
9838;SDS011;4958;48.150;11.506;2023-05-29T05:24:41;6.90;;;6.30;;
9838;SDS011;4958;48.150;11.506;2023-05-29T05:27:09;15.15;;;11.88;;
9838;SDS011;4958;48.150;11.506;2023-05-29T05:29:35;27.85;;;24.45;;
9838;SDS011;4958;48.150;11.506;2023-05-29T05:32:02;10.00;;;8.05;;
9838;SDS011;4958;48.150;11.506;2023-05-29T05:34:29;7.28;;;5.50;;
9838;SDS011;4958;48.150;11.506;2023-05-29T05:36:55;7.28;;;6.47;;
9838;SDS011;4958;48.150;11.506;2023-05-29T05:39:21;7.90;;;6.65;;
9838;SDS011;4958;48.150;11.506;2023-05-29T05:41:48;8.75;;;6.15;;
9838;SDS011;4958;48.150;11.506;2023-05-29T05:44:22;7.15;;;6.10;;
9838;SDS011;4958;48.150;11.506;2023-05-29T05:46:48;7.25;;;5.95;;
9838;SDS011;4958;48.150;11.506;2023-05-29T05:49:18;8.88;;;6.47;;
9838;SDS011;4958;48.150;11.506;2023-05-29T05:51:47;6.32;;;5.72;;
9838;SDS011;4958;48.150;11.506;2023-05-29T05:54:20;8.02;;;6.43;;
9838;SDS011;4958;48.150;11.506;2023-05-29T05:56:51;6.22;;;5.63;;
9838;SDS011;4958;48.150;11.506;2023-05-29T05:59:21;5.97;;;5.38;;
9838;SDS011;4958;48.150;11.506;2023-05-29T06:02:14;7.55;;;6.18;;
9838;SDS011;4958;48.150;11.506;2023-05-29T06:05:12;7.50;;;6.22;;
9838;SDS011;4958;48.150;11.506;2023-05-29T06:08:08;7.63;;;6.47;;
9838;SDS011;4958;48.150;11.506;2023-05-29T06:11:11;8.50;;;6.28;;
9838;SDS011;4958;48.150;11.506;2023-05-29T06:13:48;9.43;;;6.40;;
9838;SDS011;4958;48.150;11.506;2023-05-29T06:19:30;7.32;;;6.00;;
9838;SDS011;4958;48.150;11.506;2023-05-29T06:22:00;9.40;;;6.63;;
9838;SDS011;4958;48.150;11.506;2023-05-29T06:25:23;7.03;;;6.03;;
9838;SDS011;4958;48.150;11.506;2023-05-29T06:31:16;8.00;;;5.75;;
9838;SDS011;4958;48.150;11.506;2023-05-29T06:37:44;7.20;;;6.13;;
9838;SDS011;4958;48.150;11.506;2023-05-29T06:40:33;11.10;;;5.80;;
9838;SDS011;4958;48.150;11.506;2023-05-29T06:43:02;7.28;;;5.40;;
9838;SDS011;4958;48.150;11.506;2023-05-29T06:45:28;7.40;;;5.35;;
9838;SDS011;4958;48.150;11.506;2023-05-29T06:47:59;6.78;;;5.20;;
9838;SDS011;4958;48.150;11.506;2023-05-29T06:50:52;7.03;;;5.63;;
9838;SDS011;4958;48.150;11.506;2023-05-29T06:53:26;5.90;;;4.88;;
9838;SDS011;4958;48.150;11.506;2023-05-29T06:55:52;10.02;;;5.38;;
9838;SDS011;4958;48.150;11.506;2023-05-29T06:58:22;6.47;;;5.30;;
9838;SDS011;4958;48.150;11.506;2023-05-29T07:05:26;6.90;;;5.25;;
9838;SDS011;4958;48.150;11.506;2023-05-29T07:16:54;7.20;;;5.25;;
9838;SDS011;4958;48.150;11.506;2023-05-29T07:23:09;7.43;;;5.05;;
9838;SDS011;4958;48.150;11.506;2023-05-29T07:28:58;18.88;;;6.25;;
9838;SDS011;4958;48.150;11.506;2023-05-29T07:31:41;7.13;;;5.38;;
9838;SDS011;4958;48.150;11.506;2023-05-29T07:34:23;9.93;;;5.15;;
9838;SDS011;4958;48.150;11.506;2023-05-29T07:38:09;5.97;;;5.00;;
9838;SDS011;4958;48.150;11.506;2023-05-29T07:40:02;7.70;;;5.70;;
9838;SDS011;4958;48.150;11.506;2023-05-29T07:42:53;9.02;;;5.68;;
9838;SDS011;4958;48.150;11.506;2023-05-29T07:45:31;7.25;;;6.47;;
9838;SDS011;4958;48.150;11.506;2023-05-29T08:01:30;6.65;;;5.82;;
9838;SDS011;4958;48.150;11.506;2023-05-29T08:04:42;7.10;;;5.63;;
9838;SDS011;4958;48.150;11.506;2023-05-29T08:08:06;6.78;;;5.97;;
9838;SDS011;4958;48.150;11.506;2023-05-29T08:11:04;6.35;;;5.47;;
9838;SDS011;4958;48.150;11.506;2023-05-29T08:14:10;6.63;;;5.40;;
9838;SDS011;4958;48.150;11.506;2023-05-29T08:16:53;7.43;;;5.57;;
9838;SDS011;4958;48.150;11.506;2023-05-29T08:19:37;5.65;;;4.93;;
9838;SDS011;4958;48.150;11.506;2023-05-29T08:22:39;6.10;;;5.50;;
9838;SDS011;4958;48.150;11.506;2023-05-29T08:25:37;8.75;;;6.35;;
9838;SDS011;4958;48.150;11.506;2023-05-29T08:28:43;9.30;;;5.72;;
9838;SDS011;4958;48.150;11.506;2023-05-29T08:31:19;7.53;;;5.22;;
9838;SDS011;4958;48.150;11.506;2023-05-29T08:33:55;7.43;;;5.47;;
9838;SDS011;4958;48.150;11.506;2023-05-29T08:36:37;5.93;;;5.30;;
9838;SDS011;4958;48.150;11.506;2023-05-29T08:39:18;6.35;;;5.75;;
9838;SDS011;4958;48.150;11.506;2023-05-29T08:42:16;6.65;;;4.97;;
9838;SDS011;4958;48.150;11.506;2023-05-29T08:48:03;6.63;;;4.90;;
9838;SDS011;4958;48.150;11.506;2023-05-29T08:50:36;6.05;;;5.45;;
9838;SDS011;4958;48.150;11.506;2023-05-29T08:53:06;6.22;;;5.10;;
9838;SDS011;4958;48.150;11.506;2023-05-29T08:55:33;5.75;;;4.90;;
9838;SDS011;4958;48.150;11.506;2023-05-29T08:58:00;7.22;;;5.53;;
9838;SDS011;4958;48.150;11.506;2023-05-29T09:00:27;6.75;;;5.57;;
9838;SDS011;4958;48.150;11.506;2023-05-29T09:02:54;6.70;;;5.70;;
9838;SDS011;4958;48.150;11.506;2023-05-29T09:05:21;7.07;;;5.75;;
9838;SDS011;4958;48.150;11.506;2023-05-29T09:07:49;6.10;;;5.45;;
9838;SDS011;4958;48.150;11.506;2023-05-29T09:10:16;9.80;;;5.95;;
9838;SDS011;4958;48.150;11.506;2023-05-29T09:12:42;12.27;;;5.68;;
9838;SDS011;4958;48.150;11.506;2023-05-29T09:15:16;13.07;;;5.13;;
9838;SDS011;4958;48.150;11.506;2023-05-29T09:17:44;7.97;;;5.20;;
9838;SDS011;4958;48.150;11.506;2023-05-29T09:20:14;127.82;;;15.38;;
9838;SDS011;4958;48.150;11.506;2023-05-29T09:22:44;9.60;;;5.43;;
9838;SDS011;4958;48.150;11.506;2023-05-29T09:25:23;19.90;;;6.50;;
9838;SDS011;4958;48.150;11.506;2023-05-29T09:27:52;9.93;;;5.30;;
9838;SDS011;4958;48.150;11.506;2023-05-29T09:57:46;5.60;;;4.22;;
9838;SDS011;4958;48.150;11.506;2023-05-29T10:00:14;7.78;;;4.13;;
9838;SDS011;4958;48.150;11.506;2023-05-29T10:32:56;4.95;;;3.92;;
9838;SDS011;4958;48.150;11.506;2023-05-29T11:27:38;8.80;;;4.45;;
9838;SDS011;4958;48.150;11.506;2023-05-29T11:30:05;5.30;;;4.60;;
9838;SDS011;4958;48.150;11.506;2023-05-29T11:32:33;4.60;;;3.92;;
9838;SDS011;4958;48.150;11.506;2023-05-29T11:35:02;6.55;;;3.92;;
9838;SDS011;4958;48.150;11.506;2023-05-29T11:37:33;4.15;;;3.75;;
9838;SDS011;4958;48.150;11.506;2023-05-29T11:40:02;6.22;;;3.97;;
9838;SDS011;4958;48.150;11.506;2023-05-29T11:42:29;4.28;;;3.88;;
9838;SDS011;4958;48.150;11.506;2023-05-29T11:44:57;4.35;;;3.78;;
9838;SDS011;4958;48.150;11.506;2023-05-29T11:47:49;6.57;;;4.10;;
9838;SDS011;4958;48.150;11.506;2023-05-29T11:50:18;4.15;;;3.75;;
9838;SDS011;4958;48.150;11.506;2023-05-29T11:52:45;5.28;;;3.92;;
9838;SDS011;4958;48.150;11.506;2023-05-29T11:55:11;4.45;;;3.83;;
9838;SDS011;4958;48.150;11.506;2023-05-29T11:57:38;4.45;;;3.80;;
9838;SDS011;4958;48.150;11.506;2023-05-29T12:00:07;5.45;;;4.40;;
9838;SDS011;4958;48.150;11.506;2023-05-29T12:02:35;4.90;;;4.03;;
9838;SDS011;4958;48.150;11.506;2023-05-29T12:05:07;4.68;;;3.92;;
9838;SDS011;4958;48.150;11.506;2023-05-29T12:07:34;5.15;;;4.10;;
9838;SDS011;4958;48.150;11.506;2023-05-29T12:10:10;5.43;;;3.90;;
9838;SDS011;4958;48.150;11.506;2023-05-29T12:12:37;4.38;;;3.67;;
9838;SDS011;4958;48.150;11.506;2023-05-29T12:15:06;4.75;;;3.97;;
9838;SDS011;4958;48.150;11.506;2023-05-29T12:17:33;4.60;;;3.90;;
9838;SDS011;4958;48.150;11.506;2023-05-29T12:20:01;4.55;;;3.90;;
9838;SDS011;4958;48.150;11.506;2023-05-29T12:22:32;3.83;;;3.53;;
9838;SDS011;4958;48.150;11.506;2023-05-29T12:25:03;4.20;;;3.80;;
9838;SDS011;4958;48.150;11.506;2023-05-29T12:27:31;4.47;;;3.85;;
9838;SDS011;4958;48.150;11.506;2023-05-29T12:30:02;4.32;;;3.70;;
9838;SDS011;4958;48.150;11.506;2023-05-29T12:32:35;5.53;;;3.95;;
9838;SDS011;4958;48.150;11.506;2023-05-29T12:35:09;4.65;;;3.63;;
9838;SDS011;4958;48.150;11.506;2023-05-29T12:37:41;3.95;;;3.42;;
9838;SDS011;4958;48.150;11.506;2023-05-29T12:40:15;3.88;;;3.47;;
9838;SDS011;4958;48.150;11.506;2023-05-29T12:42:42;4.63;;;3.53;;
9838;SDS011;4958;48.150;11.506;2023-05-29T12:45:09;5.00;;;3.85;;
9838;SDS011;4958;48.150;11.506;2023-05-29T12:47:37;4.45;;;3.70;;
9838;SDS011;4958;48.150;11.506;2023-05-29T12:50:19;3.85;;;3.55;;
9838;SDS011;4958;48.150;11.506;2023-05-29T12:52:52;5.20;;;3.90;;
9838;SDS011;4958;48.150;11.506;2023-05-29T12:55:19;4.53;;;3.80;;
9838;SDS011;4958;48.150;11.506;2023-05-29T12:58:12;4.60;;;4.00;;
9838;SDS011;4958;48.150;11.506;2023-05-29T13:00:51;4.15;;;3.70;;
9838;SDS011;4958;48.150;11.506;2023-05-29T13:03:27;5.50;;;3.90;;
9838;SDS011;4958;48.150;11.506;2023-05-29T13:05:54;5.28;;;4.00;;
9838;SDS011;4958;48.150;11.506;2023-05-29T13:08:20;5.00;;;3.60;;
9838;SDS011;4958;48.150;11.506;2023-05-29T13:10:47;4.13;;;3.65;;
9838;SDS011;4958;48.150;11.506;2023-05-29T13:13:21;4.28;;;3.88;;
9838;SDS011;4958;48.150;11.506;2023-05-29T13:15:47;4.45;;;3.42;;
9838;SDS011;4958;48.150;11.506;2023-05-29T13:18:31;3.63;;;3.25;;
9838;SDS011;4958;48.150;11.506;2023-05-29T13:21:14;5.53;;;4.10;;
9838;SDS011;4958;48.150;11.506;2023-05-29T13:23:44;6.10;;;3.72;;
9838;SDS011;4958;48.150;11.506;2023-05-29T13:26:10;4.30;;;3.90;;
9838;SDS011;4958;48.150;11.506;2023-05-29T13:28:36;3.63;;;3.33;;
9838;SDS011;4958;48.150;11.506;2023-05-29T13:31:03;5.10;;;3.88;;
9838;SDS011;4958;48.150;11.506;2023-05-29T13:33:30;5.60;;;3.70;;
9838;SDS011;4958;48.150;11.506;2023-05-29T13:35:56;5.13;;;4.47;;
9838;SDS011;4958;48.150;11.506;2023-05-29T13:38:24;5.43;;;4.10;;
9838;SDS011;4958;48.150;11.506;2023-05-29T13:40:50;4.00;;;3.60;;
9838;SDS011;4958;48.150;11.506;2023-05-29T13:43:17;3.83;;;3.33;;
9838;SDS011;4958;48.150;11.506;2023-05-29T13:45:43;5.28;;;3.72;;
9838;SDS011;4958;48.150;11.506;2023-05-29T13:48:10;5.65;;;4.03;;
9838;SDS011;4958;48.150;11.506;2023-05-29T13:50:36;3.90;;;3.53;;
9838;SDS011;4958;48.150;11.506;2023-05-29T13:53:03;6.32;;;4.00;;
9838;SDS011;4958;48.150;11.506;2023-05-29T13:55:30;4.80;;;4.07;;
9838;SDS011;4958;48.150;11.506;2023-05-29T13:58:02;4.28;;;3.55;;
9838;SDS011;4958;48.150;11.506;2023-05-29T14:00:45;7.00;;;5.45;;
9838;SDS011;4958;48.150;11.506;2023-05-29T14:03:12;5.65;;;5.15;;
9838;SDS011;4958;48.150;11.506;2023-05-29T14:05:38;6.35;;;5.85;;
9838;SDS011;4958;48.150;11.506;2023-05-29T14:08:05;5.35;;;4.63;;
9838;SDS011;4958;48.150;11.506;2023-05-29T14:10:35;4.97;;;4.40;;
9838;SDS011;4958;48.150;11.506;2023-05-29T14:13:01;7.22;;;6.53;;
9838;SDS011;4958;48.150;11.506;2023-05-29T14:15:27;6.57;;;4.68;;
9838;SDS011;4958;48.150;11.506;2023-05-29T14:17:54;6.38;;;5.10;;
9838;SDS011;4958;48.150;11.506;2023-05-29T14:20:20;4.32;;;3.88;;
9838;SDS011;4958;48.150;11.506;2023-05-29T14:22:47;5.30;;;4.10;;
9838;SDS011;4958;48.150;11.506;2023-05-29T14:25:14;5.18;;;4.30;;
9838;SDS011;4958;48.150;11.506;2023-05-29T14:27:41;5.38;;;4.88;;
9838;SDS011;4958;48.150;11.506;2023-05-29T14:30:08;4.75;;;4.00;;
9838;SDS011;4958;48.150;11.506;2023-05-29T14:32:35;4.10;;;3.70;;
9838;SDS011;4958;48.150;11.506;2023-05-29T14:35:02;4.97;;;3.70;;
9838;SDS011;4958;48.150;11.506;2023-05-29T14:40:44;6.82;;;4.68;;
9838;SDS011;4958;48.150;11.506;2023-05-29T14:43:20;4.43;;;3.92;;
9838;SDS011;4958;48.150;11.506;2023-05-29T14:45:54;5.80;;;4.32;;
9838;SDS011;4958;48.150;11.506;2023-05-29T14:48:26;4.70;;;4.22;;
9838;SDS011;4958;48.150;11.506;2023-05-29T14:51:13;23.90;;;21.70;;
9838;SDS011;4958;48.150;11.506;2023-05-29T14:53:47;8.35;;;7.55;;
9838;SDS011;4958;48.150;11.506;2023-05-29T14:56:17;7.70;;;6.22;;
9838;SDS011;4958;48.150;11.506;2023-05-29T15:01:30;7.50;;;4.75;;
9838;SDS011;4958;48.150;11.506;2023-05-29T15:07:01;5.95;;;4.50;;
9838;SDS011;4958;48.150;11.506;2023-05-29T15:09:37;5.18;;;4.20;;
9838;SDS011;4958;48.150;11.506;2023-05-29T15:12:18;4.88;;;4.38;;
9838;SDS011;4958;48.150;11.506;2023-05-29T15:15:02;4.63;;;3.90;;
9838;SDS011;4958;48.150;11.506;2023-05-29T15:17:49;5.00;;;4.50;;
9838;SDS011;4958;48.150;11.506;2023-05-29T15:20:18;10.63;;;9.05;;
9838;SDS011;4958;48.150;11.506;2023-05-29T15:22:45;5.60;;;4.95;;
9838;SDS011;4958;48.150;11.506;2023-05-29T15:25:13;4.43;;;3.90;;
9838;SDS011;4958;48.150;11.506;2023-05-29T15:28:00;3.85;;;3.53;;
9838;SDS011;4958;48.150;11.506;2023-05-29T15:30:37;4.25;;;3.85;;
9838;SDS011;4958;48.150;11.506;2023-05-29T15:33:06;4.70;;;3.65;;
9838;SDS011;4958;48.150;11.506;2023-05-29T15:35:37;5.50;;;3.83;;
9838;SDS011;4958;48.150;11.506;2023-05-29T15:48:47;3.58;;;3.28;;
9838;SDS011;4958;48.150;11.506;2023-05-29T15:51:16;4.53;;;3.50;;
9838;SDS011;4958;48.150;11.506;2023-05-29T15:53:43;4.40;;;3.67;;
9838;SDS011;4958;48.150;11.506;2023-05-29T15:56:12;5.25;;;3.50;;
9838;SDS011;4958;48.150;11.506;2023-05-29T15:58:39;6.50;;;4.20;;
9838;SDS011;4958;48.150;11.506;2023-05-29T16:01:05;4.25;;;3.60;;
9838;SDS011;4958;48.150;11.506;2023-05-29T16:03:32;4.22;;;3.40;;
9838;SDS011;4958;48.150;11.506;2023-05-29T16:06:02;6.90;;;4.22;;
9838;SDS011;4958;48.150;11.506;2023-05-29T16:08:28;4.40;;;3.65;;
9838;SDS011;4958;48.150;11.506;2023-05-29T16:10:55;4.28;;;3.60;;
9838;SDS011;4958;48.150;11.506;2023-05-29T16:13:22;4.95;;;4.10;;
9838;SDS011;4958;48.150;11.506;2023-05-29T16:15:49;4.22;;;3.63;;
9838;SDS011;4958;48.150;11.506;2023-05-29T16:18:16;8.00;;;7.20;;
9838;SDS011;4958;48.150;11.506;2023-05-29T16:20:42;3.92;;;3.53;;
9838;SDS011;4958;48.150;11.506;2023-05-29T16:23:10;4.00;;;3.60;;
9838;SDS011;4958;48.150;11.506;2023-05-29T16:25:36;4.65;;;3.85;;
9838;SDS011;4958;48.150;11.506;2023-05-29T16:28:03;3.88;;;3.53;;
9838;SDS011;4958;48.150;11.506;2023-05-29T16:30:29;8.02;;;3.40;;
9838;SDS011;4958;48.150;11.506;2023-05-29T16:32:56;4.30;;;3.80;;
9838;SDS011;4958;48.150;11.506;2023-05-29T16:35:22;5.45;;;3.70;;
9838;SDS011;4958;48.150;11.506;2023-05-29T16:37:49;4.80;;;4.22;;
9838;SDS011;4958;48.150;11.506;2023-05-29T16:40:31;3.67;;;3.20;;
9838;SDS011;4958;48.150;11.506;2023-05-29T16:43:14;5.28;;;3.30;;
9838;SDS011;4958;48.150;11.506;2023-05-29T16:46:05;5.82;;;3.58;;
9838;SDS011;4958;48.150;11.506;2023-05-29T16:48:35;4.70;;;3.30;;
9838;SDS011;4958;48.150;11.506;2023-05-29T16:51:12;5.28;;;3.25;;
9838;SDS011;4958;48.150;11.506;2023-05-29T16:53:45;3.53;;;3.22;;
9838;SDS011;4958;48.150;11.506;2023-05-29T16:56:42;3.92;;;3.40;;
9838;SDS011;4958;48.150;11.506;2023-05-29T16:59:32;3.33;;;3.03;;
9838;SDS011;4958;48.150;11.506;2023-05-29T17:02:04;3.50;;;3.15;;
9838;SDS011;4958;48.150;11.506;2023-05-29T17:04:38;6.07;;;3.30;;
9838;SDS011;4958;48.150;11.506;2023-05-29T17:07:12;4.32;;;3.33;;
9838;SDS011;4958;48.150;11.506;2023-05-29T17:09:40;3.75;;;3.38;;
9838;SDS011;4958;48.150;11.506;2023-05-29T17:12:08;6.38;;;3.65;;
9838;SDS011;4958;48.150;11.506;2023-05-29T17:14:37;5.15;;;3.25;;
9838;SDS011;4958;48.150;11.506;2023-05-29T17:17:22;4.05;;;3.35;;
9838;SDS011;4958;48.150;11.506;2023-05-29T17:20:06;3.85;;;3.20;;
9838;SDS011;4958;48.150;11.506;2023-05-29T17:22:42;12.57;;;11.48;;
9838;SDS011;4958;48.150;11.506;2023-05-29T17:25:23;7.03;;;6.30;;
9838;SDS011;4958;48.150;11.506;2023-05-29T17:31:01;4.10;;;3.63;;
9838;SDS011;4958;48.150;11.506;2023-05-29T17:33:39;4.10;;;3.70;;
9838;SDS011;4958;48.150;11.506;2023-05-29T17:36:14;3.88;;;3.15;;
9838;SDS011;4958;48.150;11.506;2023-05-29T17:39:00;3.97;;;3.58;;
9838;SDS011;4958;48.150;11.506;2023-05-29T17:41:26;22.20;;;4.85;;
9838;SDS011;4958;48.150;11.506;2023-05-29T17:43:54;8.38;;;4.20;;
9838;SDS011;4958;48.150;11.506;2023-05-29T17:46:21;4.22;;;3.60;;
9838;SDS011;4958;48.150;11.506;2023-05-29T17:48:47;5.40;;;3.38;;
9838;SDS011;4958;48.150;11.506;2023-05-29T17:51:15;3.83;;;3.25;;
9838;SDS011;4958;48.150;11.506;2023-05-29T17:53:46;5.05;;;3.58;;
9838;SDS011;4958;48.150;11.506;2023-05-29T17:56:13;4.22;;;3.83;;
9838;SDS011;4958;48.150;11.506;2023-05-29T17:58:40;4.55;;;3.63;;
9838;SDS011;4958;48.150;11.506;2023-05-29T18:01:12;3.50;;;3.20;;
9838;SDS011;4958;48.150;11.506;2023-05-29T18:03:39;5.40;;;3.30;;
9838;SDS011;4958;48.150;11.506;2023-05-29T18:06:06;4.68;;;3.15;;
9838;SDS011;4958;48.150;11.506;2023-05-29T18:08:32;5.40;;;4.00;;
9838;SDS011;4958;48.150;11.506;2023-05-29T18:11:00;3.40;;;3.10;;
9838;SDS011;4958;48.150;11.506;2023-05-29T18:13:27;4.32;;;3.38;;
9838;SDS011;4958;48.150;11.506;2023-05-29T18:15:53;5.75;;;3.25;;
9838;SDS011;4958;48.150;11.506;2023-05-29T18:18:21;4.07;;;3.40;;
9838;SDS011;4958;48.150;11.506;2023-05-29T18:20:48;4.13;;;3.72;;
9838;SDS011;4958;48.150;11.506;2023-05-29T18:23:17;4.18;;;3.78;;
9838;SDS011;4958;48.150;11.506;2023-05-29T18:25:43;3.85;;;3.55;;
9838;SDS011;4958;48.150;11.506;2023-05-29T18:28:10;6.07;;;4.07;;